Time;durP1;ratioP1;P1;durP2;ratioP2;P2;SDS_P1;SDS_P2;PMS_P1;PMS_P2;Temp;Humidity;BMP_temperature;BMP_pressure;BME280_temperature;BME280_humidity;BME280_pressure;Samples;Min_cycle;Max_cycle;Signal;HPM_P1;HPM_P2
2021/12/06 00:00:26;;;;;;;20.73;10.43;;;5.10;99.90;;;;;;5049838;28;20048;-83
2021/12/06 00:02:55;;;;;;;21.02;10.35;;;5.10;99.90;;;;;;5046025;28;20029;-80
2021/12/06 00:05:23;;;;;;;20.75;10.10;;;5.00;99.90;;;;;;5048589;28;20500;-84
2021/12/06 00:07:49;;;;;;;20.73;10.23;;;5.00;99.90;;;;;;5055345;28;20112;-83
2021/12/06 00:10:15;;;;;;;22.17;10.15;;;5.00;99.90;;;;;;5040634;28;20056;-82
2021/12/06 00:12:42;;;;;;;22.30;10.27;;;4.90;99.90;;;;;;5047743;28;20029;-83
2021/12/06 00:15:09;;;;;;;22.55;11.40;;;4.90;99.90;;;;;;5055343;28;20457;-83
2021/12/06 00:17:35;;;;;;;20.73;9.95;;;4.90;99.90;;;;;;5045230;28;20036;-80
2021/12/06 00:20:02;;;;;;;27.77;10.68;;;4.80;99.90;;;;;;5057983;28;20048;-83
2021/12/06 00:22:28;;;;;;;24.73;10.35;;;4.80;99.90;;;;;;5059414;28;20060;-84
2021/12/06 00:24:56;;;;;;;21.45;10.00;;;4.80;99.90;;;;;;5060727;28;20090;-84
2021/12/06 00:27:22;;;;;;;25.58;11.10;;;4.80;99.90;;;;;;5048460;28;20025;-83
2021/12/06 00:29:49;;;;;;;21.38;9.65;;;4.80;99.90;;;;;;5057435;28;20021;-82
2021/12/06 00:32:15;;;;;;;23.75;9.82;;;4.80;99.90;;;;;;5059934;28;20489;-83
2021/12/06 00:34:42;;;;;;;20.30;10.15;;;4.80;99.90;;;;;;5061036;28;20493;-84
2021/12/06 00:37:21;;;;;;;25.50;9.75;;;4.80;99.90;;;;;;5060313;28;20107;-83
2021/12/06 00:39:53;;;;;;;18.95;9.88;;;4.80;99.90;;;;;;5058676;28;20055;-80
2021/12/06 00:42:24;;;;;;;24.55;11.23;;;4.80;99.90;;;;;;5058361;28;20028;-85
2021/12/06 00:44:51;;;;;;;21.75;10.57;;;4.80;99.90;;;;;;5051882;28;20013;-83
2021/12/06 00:47:17;;;;;;;23.48;10.60;;;4.80;99.90;;;;;;5051658;28;20029;-84
2021/12/06 00:49:45;;;;;;;22.75;10.90;;;4.80;99.90;;;;;;5051757;28;20056;-82
2021/12/06 00:52:11;;;;;;;;;;;4.80;99.90;;;;;;5041550;28;20391;-83
2021/12/06 00:54:37;;;;;;;21.15;10.27;;;4.80;99.90;;;;;;5057921;28;19916;-83
2021/12/06 00:57:06;;;;;;;23.75;11.15;;;4.80;99.90;;;;;;5065576;28;20047;-81
2021/12/06 00:59:32;;;;;;;30.90;11.00;;;4.80;99.90;;;;;;5074449;28;20460;-84
2021/12/06 01:02:00;;;;;;;19.77;10.38;;;4.90;99.90;;;;;;5060216;28;20487;-84
2021/12/06 01:04:31;;;;;;;22.17;10.15;;;4.90;99.90;;;;;;5058067;28;20035;-82
2021/12/06 01:06:57;;;;;;;28.70;11.70;;;4.90;99.90;;;;;;5058971;28;20043;-84
2021/12/06 01:09:23;;;;;;;25.00;11.80;;;5.00;99.90;;;;;;5058821;28;20017;-85
2021/12/06 01:11:49;;;;;;;27.42;10.32;;;5.00;99.90;;;;;;5078229;28;20028;-84
2021/12/06 01:14:15;;;;;;;24.13;10.43;;;5.10;99.90;;;;;;5079794;28;20393;-85
2021/12/06 01:16:40;;;;;;;23.17;10.88;;;5.10;99.90;;;;;;5058967;28;20038;-84
2021/12/06 01:19:06;;;;;;;21.85;10.23;;;5.10;99.90;;;;;;5060864;28;20105;-85
2021/12/06 01:22:06;;;;;;;25.92;11.25;;;5.10;99.90;;;;;;5060001;28;20028;-83
2021/12/06 01:24:24;;;;;;;22.50;11.10;;;5.10;99.90;;;;;;5076918;28;20039;-84
2021/12/06 01:30:16;;;;;;;21.35;10.32;;;5.10;99.90;;;;;;5077146;28;20071;-84
2021/12/06 01:40:27;;;;;;;27.05;11.68;;;5.30;99.90;;;;;;5078705;28;20082;-83
2021/12/06 01:42:53;;;;;;;25.33;12.38;;;5.20;99.90;;;;;;5059109;28;20044;-83
2021/12/06 01:45:19;;;;;;;23.05;11.48;;;5.20;99.90;;;;;;5064883;28;20025;-84
2021/12/06 01:47:46;;;;;;;30.20;12.57;;;5.30;99.90;;;;;;5050939;28;20094;-83
2021/12/06 01:50:20;;;;;;;31.30;12.23;;;5.20;99.90;;;;;;5058169;28;20512;-82
2021/12/06 01:52:49;;;;;;;31.50;11.82;;;5.30;99.90;;;;;;5067824;28;20096;-84
2021/12/06 01:55:18;;;;;;;28.02;12.38;;;5.30;99.90;;;;;;5056032;28;20031;-85
2021/12/06 01:57:46;;;;;;;24.55;12.05;;;5.30;99.90;;;;;;5059928;28;20051;-85
2021/12/06 02:00:21;;;;;;;32.33;12.45;;;5.30;99.90;;;;;;5058244;28;20100;-84
2021/12/06 02:02:46;;;;;;;28.98;12.40;;;5.30;99.90;;;;;;5056713;28;20029;-85
2021/12/06 02:05:12;;;;;;;29.70;13.40;;;5.30;99.90;;;;;;5055812;28;20025;-83
2021/12/06 02:07:38;;;;;;;30.15;13.13;;;5.40;99.90;;;;;;5031229;28;20048;-85
2021/12/06 02:10:06;;;;;;;31.67;13.63;;;5.40;99.90;;;;;;5040517;28;20025;-83
2021/12/06 02:12:32;;;;;;;30.08;14.07;;;5.30;99.90;;;;;;5057588;28;20106;-84
2021/12/06 02:15:22;;;;;;;31.38;13.57;;;5.30;99.90;;;;;;5049402;28;20405;-84
2021/12/06 02:17:57;;;;;;;24.20;12.07;;;5.30;99.90;;;;;;5056385;28;20044;-82
2021/12/06 02:20:27;;;;;;;24.25;12.30;;;5.40;99.90;;;;;;5055996;28;20047;-83
2021/12/06 02:22:54;;;;;;;32.28;12.45;;;5.40;99.90;;;;;;5055861;28;20024;-84
2021/12/06 02:25:20;;;;;;;30.95;12.40;;;5.50;99.90;;;;;;5056546;28;20082;-81
2021/12/06 02:27:48;;;;;;;33.30;12.10;;;5.50;99.90;;;;;;5053493;28;20021;-83
2021/12/06 02:30:15;;;;;;;27.58;12.70;;;5.50;99.90;;;;;;5048231;28;20038;-83
2021/12/06 02:32:41;;;;;;;29.87;12.97;;;5.60;99.90;;;;;;5074684;28;20029;-83
2021/12/06 02:35:12;;;;;;;33.13;13.63;;;5.60;99.90;;;;;;5075101;28;20271;-83
2021/12/06 02:37:38;;;;;;;28.58;13.05;;;5.60;99.90;;;;;;5053932;28;20481;-85
2021/12/06 02:40:14;;;;;;;28.40;13.77;;;5.60;99.90;;;;;;5056342;28;20397;-82
2021/12/06 02:42:41;;;;;;;29.95;12.88;;;5.60;99.90;;;;;;5057682;28;20370;-83
2021/12/06 02:45:09;;;;;;;28.95;12.95;;;5.60;99.90;;;;;;5072985;28;20105;-84
2021/12/06 02:47:35;;;;;;;33.70;13.32;;;5.60;99.90;;;;;;5074746;28;20559;-82
2021/12/06 02:50:07;;;;;;;32.28;14.35;;;5.70;99.90;;;;;;5057558;28;20029;-83
2021/12/06 02:52:33;;;;;;;28.17;13.23;;;5.70;99.90;;;;;;5056834;28;20103;-83
2021/12/06 02:55:00;;;;;;;27.15;12.05;;;5.70;99.90;;;;;;5070286;28;20151;-83
2021/12/06 02:57:35;;;;;;;19.90;9.95;;;5.80;99.90;;;;;;5066922;28;20036;-82
2021/12/06 03:00:08;;;;;;;44.42;13.82;;;5.80;99.90;;;;;;5052559;28;20025;-84
2021/12/06 03:02:34;;;;;;;29.95;13.35;;;5.80;99.90;;;;;;5054222;28;20029;-84
2021/12/06 03:04:59;;;;;;;34.05;13.73;;;5.90;99.90;;;;;;5065528;28;20021;-81
2021/12/06 03:07:28;;;;;;;32.15;13.82;;;5.90;99.90;;;;;;5053199;28;20051;-83
2021/12/06 03:09:55;;;;;;;;;;;5.80;99.90;;;;;;5063360;28;20033;-83
2021/12/06 03:12:26;;;;;;;32.22;13.85;;;5.80;99.90;;;;;;5057024;28;20451;-83
2021/12/06 03:14:58;;;;;;;27.95;12.95;;;5.70;99.90;;;;;;5057253;28;20060;-82
2021/12/06 03:17:27;;;;;;;32.25;14.45;;;5.70;99.90;;;;;;5074266;28;20031;-84
2021/12/06 03:19:52;;;;;;;27.70;13.05;;;5.70;99.90;;;;;;5056343;28;20457;-84
2021/12/06 03:22:19;;;;;;;30.92;14.98;;;5.70;99.90;;;;;;5057943;28;20055;-83
2021/12/06 03:24:45;;;;;;;32.65;13.95;;;5.70;99.90;;;;;;5065666;28;20028;-83
2021/12/06 03:27:13;;;;;;;35.90;13.27;;;5.70;99.90;;;;;;5079569;28;20033;-84
2021/12/06 03:29:38;;;;;;;29.13;13.37;;;5.70;99.90;;;;;;5080747;28;20023;-81
2021/12/06 03:32:05;;;;;;;38.45;15.27;;;5.70;99.90;;;;;;5090856;28;20286;-83
2021/12/06 03:34:31;;;;;;;36.55;13.90;;;5.70;99.90;;;;;;5080865;28;20107;-81
2021/12/06 03:37:01;;;;;;;38.45;14.30;;;5.70;99.90;;;;;;5098932;28;20079;-81
2021/12/06 03:39:31;;;;;;;30.20;13.43;;;5.80;99.90;;;;;;5098955;28;20011;-83
2021/12/06 03:42:00;;;;;;;38.88;14.13;;;5.80;99.90;;;;;;5096484;28;20037;-82
2021/12/06 03:44:26;;;;;;;31.67;13.20;;;5.70;99.90;;;;;;5062930;28;20060;-80
2021/12/06 03:46:56;;;;;;;27.02;12.90;;;5.70;99.90;;;;;;5078580;28;20129;-82
2021/12/06 03:49:22;;;;;;;39.63;14.55;;;5.70;99.90;;;;;;5090724;28;20021;-82
2021/12/06 03:51:49;;;;;;;36.70;13.57;;;5.60;99.90;;;;;;5078173;28;20012;-80
2021/12/06 03:54:20;;;;;;;31.25;14.73;;;5.60;99.90;;;;;;5080721;28;20020;-81
2021/12/06 03:56:46;;;;;;;34.17;14.15;;;5.70;99.90;;;;;;5080590;28;20059;-80
2021/12/06 03:59:15;;;;;;;30.90;13.70;;;5.60;99.90;;;;;;5080823;28;20035;-79
2021/12/06 04:01:41;;;;;;;34.83;13.25;;;5.70;99.90;;;;;;5081499;28;20020;-81
2021/12/06 04:04:08;;;;;;;33.70;13.50;;;5.80;99.90;;;;;;5078329;28;20020;-82
2021/12/06 04:06:35;;;;;;;40.67;14.00;;;5.80;99.90;;;;;;5083055;28;20016;-85
2021/12/06 04:09:02;;;;;;;30.13;13.10;;;5.80;99.90;;;;;;5062867;28;20103;-83
2021/12/06 04:11:27;;;;;;;26.65;12.40;;;5.80;99.90;;;;;;5093791;28;20009;-84
2021/12/06 04:13:53;;;;;;;29.67;12.43;;;5.80;99.90;;;;;;5091777;28;20021;-80
2021/12/06 04:16:19;;;;;;;29.38;13.35;;;5.80;99.90;;;;;;5069295;28;20048;-81
2021/12/06 04:18:46;;;;;;;28.60;12.55;;;5.70;99.90;;;;;;5081160;28;20017;-80
2021/12/06 04:21:12;;;;;;;43.63;13.27;;;5.70;99.90;;;;;;5080428;28;20028;-81
2021/12/06 04:23:39;;;;;;;34.33;13.30;;;5.60;99.90;;;;;;5079769;28;20023;-81
2021/12/06 04:26:06;;;;;;;33.70;13.45;;;5.60;99.90;;;;;;5090721;28;20028;-83
2021/12/06 04:28:34;;;;;;;37.05;14.73;;;5.50;99.90;;;;;;5063230;28;20036;-84
2021/12/06 04:31:01;;;;;;;31.92;14.75;;;5.50;99.90;;;;;;5060845;28;20024;-84
2021/12/06 04:33:26;;;;;;;34.58;14.20;;;5.60;99.90;;;;;;5056106;28;20032;-82
2021/12/06 04:35:52;;;;;;;37.00;14.80;;;5.70;99.90;;;;;;5073483;28;20064;-84
2021/12/06 04:38:18;;;;;;;32.75;13.02;;;5.70;99.90;;;;;;5074873;28;20110;-84
2021/12/06 04:40:44;;;;;;;36.92;14.48;;;5.70;99.90;;;;;;5067508;28;20025;-86
2021/12/06 04:43:10;;;;;;;33.05;14.00;;;5.80;99.90;;;;;;5057543;28;20037;-85
2021/12/06 04:45:36;;;;;;;40.55;13.60;;;5.80;99.90;;;;;;5073427;28;20087;-85
2021/12/06 04:48:03;;;;;;;37.53;14.52;;;5.80;99.90;;;;;;5084144;28;20020;-78
2021/12/06 04:50:32;;;;;;;36.60;13.97;;;5.70;99.90;;;;;;5092539;28;20025;-81
2021/12/06 04:53:07;;;;;;;35.97;12.60;;;5.60;99.90;;;;;;5078979;28;20017;-85
2021/12/06 04:55:43;;;;;;;33.72;12.75;;;5.50;99.90;;;;;;5079484;28;20008;-86
2021/12/06 04:58:13;;;;;;;30.38;12.52;;;5.40;99.90;;;;;;5057386;28;20353;-84
2021/12/06 05:00:48;;;;;;;34.53;11.85;;;5.50;99.90;;;;;;5074202;28;20088;-83
2021/12/06 05:03:15;;;;;;;34.28;13.05;;;5.60;99.90;;;;;;5077096;28;20021;-84
2021/12/06 05:05:47;;;;;;;32.65;13.63;;;5.50;99.90;;;;;;5076957;28;20443;-84
2021/12/06 05:08:21;;;;;;;36.15;13.65;;;5.50;99.90;;;;;;5076994;28;20031;-84
2021/12/06 05:10:48;;;;;;;36.22;14.63;;;5.40;99.90;;;;;;5058503;28;20480;-84
2021/12/06 05:13:14;;;;;;;32.17;13.25;;;5.40;99.90;;;;;;5059575;28;20081;-84
2021/12/06 05:15:40;;;;;;;32.58;13.82;;;5.40;99.90;;;;;;5076564;28;20084;-84
2021/12/06 05:18:06;;;;;;;33.83;12.40;;;5.50;99.90;;;;;;5077615;28;20366;-83
2021/12/06 05:20:34;;;;;;;34.15;13.13;;;5.60;99.90;;;;;;5077268;28;20024;-84
2021/12/06 05:23:01;;;;;;;30.15;12.65;;;5.60;99.90;;;;;;5058262;28;20107;-83
2021/12/06 05:25:27;;;;;;;30.40;12.57;;;5.70;99.90;;;;;;5055672;28;20486;-83
2021/12/06 05:27:54;;;;;;;32.08;12.65;;;5.70;99.90;;;;;;5060811;28;20074;-83
2021/12/06 05:30:24;;;;;;;29.80;12.00;;;5.60;99.90;;;;;;5065058;28;20083;-84
2021/12/06 05:32:51;;;;;;;31.73;12.52;;;5.70;99.90;;;;;;5057418;28;20539;-81
2021/12/06 05:35:18;;;;;;;28.13;11.82;;;5.60;99.90;;;;;;5059286;28;20020;-82
2021/12/06 05:37:48;;;;;;;33.55;13.90;;;5.70;99.90;;;;;;5076835;28;20044;-83
2021/12/06 05:40:19;;;;;;;32.88;12.52;;;5.60;99.90;;;;;;5076532;28;20070;-84
2021/12/06 05:42:46;;;;;;;33.92;13.55;;;5.50;99.90;;;;;;5076987;28;20056;-83
2021/12/06 05:45:13;;;;;;;31.15;13.65;;;5.50;99.90;;;;;;5064594;28;20027;-82
2021/12/06 05:47:39;;;;;;;24.20;10.63;;;5.50;99.90;;;;;;5077155;28;20032;-84
2021/12/06 05:50:06;;;;;;;36.92;14.70;;;5.50;99.90;;;;;;5077170;28;20012;-84
2021/12/06 05:52:31;;;;;;;33.58;13.05;;;5.30;99.90;;;;;;5058788;28;20389;-82
2021/12/06 05:54:57;;;;;;;33.85;13.60;;;5.30;99.90;;;;;;5058943;28;20017;-84
2021/12/06 05:57:23;;;;;;;31.15;14.13;;;5.30;99.90;;;;;;5058940;28;20135;-84
2021/12/06 05:59:48;;;;;;;33.08;14.05;;;5.30;99.90;;;;;;5052900;28;20111;-83
2021/12/06 06:02:14;;;;;;;31.05;13.55;;;5.20;99.90;;;;;;5057941;28;20127;-83
2021/12/06 06:04:40;;;;;;;32.28;14.35;;;5.20;99.90;;;;;;5057575;28;20380;-83
2021/12/06 06:07:06;;;;;;;38.38;13.77;;;5.30;99.90;;;;;;5076091;28;20036;-83
2021/12/06 06:09:33;;;;;;;32.28;13.90;;;5.30;99.90;;;;;;5045252;28;20393;-83
2021/12/06 06:11:59;;;;;;;35.30;14.98;;;5.30;99.90;;;;;;5057459;28;20039;-83
2021/12/06 06:14:25;;;;;;;36.65;15.02;;;5.40;99.90;;;;;;5071216;28;20033;-83
2021/12/06 06:16:53;;;;;;;36.00;14.10;;;5.40;99.90;;;;;;5058825;28;20028;-83
2021/12/06 06:19:22;;;;;;;33.90;14.57;;;5.30;99.90;;;;;;5057302;28;20043;-83
2021/12/06 06:21:49;;;;;;;41.58;14.27;;;5.20;99.90;;;;;;5056670;28;20064;-83
2021/12/06 06:24:15;;;;;;;32.83;15.30;;;5.20;99.90;;;;;;5057877;28;20066;-84
2021/12/06 06:26:41;;;;;;;39.28;16.58;;;5.30;99.90;;;;;;5075213;28;20111;-83
2021/12/06 06:29:07;;;;;;;37.80;15.35;;;5.30;99.90;;;;;;5073096;28;20036;-83
2021/12/06 06:31:33;;;;;;;43.90;15.00;;;5.30;99.90;;;;;;5057824;28;20032;-83
2021/12/06 06:33:59;;;;;;;35.33;13.23;;;5.30;99.90;;;;;;5057140;28;20024;-83
2021/12/06 06:36:24;;;;;;;37.88;14.25;;;5.30;99.90;;;;;;5075449;28;20059;-83
2021/12/06 06:38:50;;;;;;;38.88;14.02;;;5.30;99.90;;;;;;5057580;28;20035;-83
2021/12/06 06:41:16;;;;;;;36.78;13.27;;;5.30;99.90;;;;;;5075439;28;20032;-82
2021/12/06 06:43:41;;;;;;;39.88;14.25;;;5.30;99.90;;;;;;5064768;28;20497;-82
2021/12/06 06:46:08;;;;;;;38.25;15.25;;;5.20;99.90;;;;;;5056027;28;20032;-83
2021/12/06 06:48:34;;;;;;;35.03;13.85;;;5.20;99.90;;;;;;5070268;28;20033;-82
2021/12/06 06:51:00;;;;;;;33.60;13.93;;;5.20;99.90;;;;;;5056269;28;20045;-83
2021/12/06 06:53:27;;;;;;;38.30;15.50;;;5.20;99.90;;;;;;5075461;28;20052;-82
2021/12/06 06:55:53;;;;;;;38.00;14.73;;;5.30;99.90;;;;;;5057249;28;20451;-83
2021/12/06 06:58:19;;;;;;;38.90;14.45;;;5.30;99.90;;;;;;5056093;28;20094;-83
2021/12/06 07:00:45;;;;;;;35.60;13.15;;;5.50;99.90;;;;;;5074480;28;20111;-82
2021/12/06 07:03:11;;;;;;;37.67;15.50;;;5.40;99.90;;;;;;5056982;28;20055;-81
2021/12/06 07:05:37;;;;;;;34.17;15.70;;;5.30;99.90;;;;;;5056593;28;20024;-84
2021/12/06 07:08:03;;;;;;;45.47;15.98;;;5.40;99.90;;;;;;5038328;28;20040;-82
2021/12/06 07:10:29;;;;;;;31.63;14.38;;;5.40;99.90;;;;;;5038006;28;20560;-83
2021/12/06 07:12:56;;;;;;;37.67;14.68;;;5.30;99.90;;;;;;5065311;28;20052;-83
2021/12/06 07:15:25;;;;;;;35.92;16.02;;;5.30;99.90;;;;;;5055458;28;20493;-83
2021/12/06 07:17:51;;;;;;;40.22;16.10;;;5.30;99.90;;;;;;5059695;28;20024;-83
2021/12/06 07:20:18;;;;;;;38.88;14.18;;;5.40;99.90;;;;;;5074562;28;20130;-84
2021/12/06 07:22:45;;;;;;;40.20;15.63;;;5.30;99.90;;;;;;5056505;28;20035;-83
2021/12/06 07:25:13;;;;;;;35.67;14.40;;;5.30;99.90;;;;;;5075158;28;20025;-83
2021/12/06 07:27:39;;;;;;;43.28;16.58;;;5.20;99.90;;;;;;5057651;28;20032;-83
2021/12/06 07:30:07;;;;;;;36.70;14.68;;;5.40;99.90;;;;;;5067329;28;20040;-84
2021/12/06 07:32:33;;;;;;;31.25;10.52;;;5.40;99.90;;;;;;5036508;28;20086;-83
2021/12/06 07:34:58;;;;;;;35.35;14.57;;;5.40;99.90;;;;;;5054829;28;20029;-82
2021/12/06 07:37:24;;;;;;;32.70;13.82;;;5.40;99.90;;;;;;5048178;28;20029;-83
2021/12/06 07:39:50;;;;;;;34.05;14.57;;;5.30;99.90;;;;;;5057371;28;20054;-82
2021/12/06 07:42:16;;;;;;;38.80;16.80;;;5.20;99.90;;;;;;5074748;28;20032;-82
2021/12/06 07:44:42;;;;;;;33.75;14.43;;;5.20;99.90;;;;;;5074524;28;20039;-82
2021/12/06 07:47:09;;;;;;;44.60;15.50;;;5.20;99.90;;;;;;5074756;28;20039;-83
2021/12/06 07:49:37;;;;;;;33.03;14.23;;;5.20;99.90;;;;;;5055869;28;20051;-83
2021/12/06 07:52:03;;;;;;;35.00;15.82;;;5.20;99.90;;;;;;5056114;28;20082;-82
2021/12/06 07:54:29;;;;;;;39.70;16.25;;;5.20;99.90;;;;;;5074625;28;20401;-83
2021/12/06 07:56:55;;;;;;;34.58;15.43;;;5.20;99.90;;;;;;5074022;28;20108;-83
2021/12/06 07:59:21;;;;;;;34.38;16.00;;;5.30;99.90;;;;;;5074991;28;20020;-83
2021/12/06 08:01:46;;;;;;;41.70;15.90;;;5.20;99.90;;;;;;5074406;28;20031;-82
2021/12/06 08:04:12;;;;;;;37.05;15.70;;;5.20;99.90;;;;;;5073883;28;20068;-83
2021/12/06 08:06:38;;;;;;;39.10;16.30;;;5.20;99.90;;;;;;5048461;28;20238;-83
2021/12/06 08:09:05;;;;;;;36.67;15.98;;;5.30;99.90;;;;;;5074623;28;20037;-83
2021/12/06 08:11:31;;;;;;;40.07;15.37;;;5.40;99.90;;;;;;5074190;28;20039;-84
2021/12/06 08:13:56;;;;;;;38.50;16.75;;;5.30;99.90;;;;;;5056156;28;20473;-84
2021/12/06 08:16:26;;;;;;;45.20;15.60;;;5.30;99.90;;;;;;5055268;28;20104;-83
2021/12/06 08:18:53;;;;;;;37.42;15.20;;;5.30;99.90;;;;;;5073919;28;20029;-83
2021/12/06 08:21:21;;;;;;;47.88;16.58;;;5.30;99.90;;;;;;5074182;28;20021;-84
2021/12/06 08:23:49;;;;;;;44.55;16.05;;;5.20;99.90;;;;;;5073243;28;20395;-83
2021/12/06 08:26:16;;;;;;;42.42;16.60;;;5.10;99.90;;;;;;5052691;28;20045;-84
2021/12/06 08:28:43;;;;;;;43.35;16.73;;;5.10;99.90;;;;;;5069287;28;20029;-82
2021/12/06 08:31:09;;;;;;;43.37;17.33;;;5.10;99.90;;;;;;5055542;28;20052;-81
2021/12/06 08:33:37;;;;;;;44.05;15.55;;;5.10;99.90;;;;;;5058337;28;20271;-82
2021/12/06 08:36:05;;;;;;;36.35;16.10;;;5.00;99.90;;;;;;5058895;28;20064;-81
2021/12/06 08:38:34;;;;;;;40.72;17.58;;;5.10;99.90;;;;;;5055879;28;20040;-81
2021/12/06 08:41:04;;;;;;;43.72;16.77;;;5.00;99.90;;;;;;5062999;28;20477;-82
2021/12/06 08:43:29;;;;;;;38.92;17.23;;;5.00;99.90;;;;;;5073044;28;20029;-82
2021/12/06 08:46:07;;;;;;;47.28;17.15;;;5.00;99.90;;;;;;5069245;28;20094;-81
2021/12/06 08:48:34;;;;;;;39.28;16.80;;;5.10;99.90;;;;;;5058065;28;20040;-82
2021/12/06 08:51:12;;;;;;;38.77;16.43;;;5.10;99.90;;;;;;5077346;28;20032;-83
2021/12/06 08:53:39;;;;;;;37.80;16.70;;;5.00;99.90;;;;;;5074781;28;20553;-83
2021/12/06 08:56:05;;;;;;;41.27;17.33;;;5.10;99.90;;;;;;5051395;28;20052;-82
2021/12/06 08:58:31;;;;;;;41.03;17.73;;;5.10;99.90;;;;;;5057349;28;20291;-82
2021/12/06 09:00:57;;;;;;;42.95;16.58;;;5.10;99.90;;;;;;5059399;28;20027;-83
2021/12/06 09:03:23;;;;;;;43.97;16.08;;;5.10;99.90;;;;;;5052250;28;20433;-82
2021/12/06 09:05:53;;;;;;;47.97;18.42;;;5.20;99.90;;;;;;5056995;28;20458;-82
2021/12/06 09:08:18;;;;;;;41.70;18.40;;;5.20;99.90;;;;;;5039337;28;20128;-83
2021/12/06 09:10:49;;;;;;;48.85;19.20;;;5.20;99.90;;;;;;5056980;28;20057;-82
2021/12/06 09:13:16;;;;;;;44.08;18.77;;;5.10;99.90;;;;;;5051840;28;20524;-82
2021/12/06 09:15:42;;;;;;;44.03;18.40;;;5.20;99.90;;;;;;5055435;28;20029;-83
2021/12/06 09:18:09;;;;;;;48.10;19.15;;;5.20;99.90;;;;;;5056328;28;20478;-82
2021/12/06 09:20:55;;;;;;;43.42;17.98;;;5.20;99.90;;;;;;5058909;28;20463;-83
2021/12/06 09:23:20;;;;;;;48.45;19.42;;;5.20;99.90;;;;;;5072475;28;20449;-83
2021/12/06 09:25:47;;;;;;;49.05;20.40;;;5.20;99.90;;;;;;5076903;28;20028;-83
2021/12/06 09:28:15;;;;;;;52.50;21.02;;;5.30;99.90;;;;;;5058905;28;20048;-82
2021/12/06 09:30:41;;;;;;;61.40;23.30;;;5.30;99.90;;;;;;5058843;28;20480;-83
2021/12/06 09:33:10;;;;;;;60.78;23.25;;;5.30;99.90;;;;;;5076396;28;20145;-82
2021/12/06 09:35:40;;;;;;;64.60;23.52;;;5.20;99.90;;;;;;5038945;28;20078;-82
2021/12/06 09:38:06;;;;;;;58.30;23.40;;;5.20;99.90;;;;;;5064615;28;20029;-80
2021/12/06 09:40:35;;;;;;;62.50;22.60;;;5.20;99.90;;;;;;5054017;28;20029;-80
2021/12/06 09:43:03;;;;;;;68.57;23.67;;;5.20;99.90;;;;;;5055746;28;20017;-82
2021/12/06 09:45:30;;;;;;;;;;;5.10;99.90;;;;;;5055742;28;20024;-82
2021/12/06 09:47:57;;;;;;;65.30;23.45;;;5.10;99.90;;;;;;5044593;28;19930;-81
2021/12/06 09:50:27;;;;;;;69.30;25.60;;;5.10;99.90;;;;;;5057601;28;20037;-83
2021/12/06 09:52:56;;;;;;;66.80;22.90;;;5.10;99.90;;;;;;5075911;28;20021;-83
2021/12/06 09:55:22;;;;;;;71.47;27.33;;;5.10;99.90;;;;;;5057393;28;20565;-83
2021/12/06 09:57:48;;;;;;;75.90;26.30;;;5.10;99.90;;;;;;5074212;28;20045;-82
2021/12/06 10:00:18;;;;;;;72.60;25.50;;;5.20;99.90;;;;;;5043439;28;20552;-84
2021/12/06 10:02:43;;;;;;;78.80;27.17;;;5.20;99.90;;;;;;5075022;28;20028;-83
2021/12/06 10:05:10;;;;;;;75.78;27.67;;;5.20;99.90;;;;;;5075868;28;20071;-84
2021/12/06 10:07:36;;;;;;;80.03;27.25;;;5.20;99.90;;;;;;5057482;28;20068;-83
2021/12/06 10:10:05;;;;;;;69.50;24.23;;;5.20;99.90;;;;;;5075836;28;20500;-83
2021/12/06 10:12:30;;;;;;;78.10;26.42;;;5.20;99.90;;;;;;5072877;28;20047;-83
2021/12/06 10:15:00;;;;;;;77.82;26.98;;;5.20;99.90;;;;;;5075478;28;20025;-83
2021/12/06 10:17:26;;;;;;;76.75;26.27;;;5.20;99.90;;;;;;5075265;28;20027;-84
2021/12/06 10:19:52;;;;;;;80.50;26.58;;;5.20;99.90;;;;;;5058753;28;20025;-84
2021/12/06 10:22:18;;;;;;;75.55;26.98;;;5.20;99.90;;;;;;5071637;28;20025;-83
2021/12/06 10:24:52;;;;;;;88.47;27.30;;;5.20;99.90;;;;;;5044332;28;20032;-82
2021/12/06 10:27:19;;;;;;;84.63;24.92;;;5.20;99.90;;;;;;5073772;28;20032;-79
2021/12/06 10:29:53;;;;;;;83.55;25.65;;;5.20;99.90;;;;;;5053411;28;20032;-81
2021/12/06 10:32:22;;;;;;;94.72;27.40;;;5.30;99.90;;;;;;5051551;28;20072;-81
2021/12/06 10:34:52;;;;;;;77.03;26.25;;;5.30;99.90;;;;;;5073757;28;20037;-80
2021/12/06 10:37:47;;;;;;;79.97;27.48;;;5.30;99.90;;;;;;5073821;28;20031;-80
2021/12/06 10:40:27;;;;;;;74.35;24.45;;;5.20;99.90;;;;;;5073072;28;20036;-82
2021/12/06 10:42:56;;;;;;;70.22;21.77;;;5.20;99.90;;;;;;5069612;28;20129;-81
2021/12/06 10:45:29;;;;;;;73.72;23.30;;;5.10;99.90;;;;;;5075229;28;20029;-80
2021/12/06 10:48:04;;;;;;;71.07;24.35;;;5.10;99.90;;;;;;5041424;28;20028;-79
2021/12/06 10:50:29;;;;;;;74.95;22.70;;;5.20;99.90;;;;;;5036877;28;20025;-79
2021/12/06 10:52:57;;;;;;;59.97;20.88;;;5.30;99.90;;;;;;5072775;28;20032;-78
2021/12/06 10:55:28;;;;;;;63.53;20.87;;;5.30;99.90;;;;;;5056560;28;20028;-78
2021/12/06 10:57:58;;;;;;;66.45;20.98;;;5.30;99.90;;;;;;5064736;28;20047;-83
2021/12/06 11:01:06;;;;;;;62.88;20.77;;;5.30;99.90;;;;;;5042544;28;20021;-82
2021/12/06 11:03:36;;;;;;;60.08;20.88;;;5.40;99.90;;;;;;5054047;28;20037;-83
2021/12/06 11:06:10;;;;;;;62.22;20.42;;;5.40;99.90;;;;;;5055325;28;20016;-83
2021/12/06 11:08:38;;;;;;;64.40;21.85;;;5.50;99.90;;;;;;5053456;28;20031;-83
2021/12/06 11:11:09;;;;;;;56.47;20.10;;;5.50;99.90;;;;;;5077752;28;20024;-84
2021/12/06 11:13:38;;;;;;;52.50;19.15;;;5.60;99.90;;;;;;5076114;28;20055;-84
2021/12/06 11:16:20;;;;;;;52.38;18.55;;;5.70;99.90;;;;;;5056224;28;20111;-84
2021/12/06 11:18:54;;;;;;;54.95;17.83;;;5.80;99.90;;;;;;5055158;28;20032;-86
2021/12/06 11:21:29;;;;;;;50.40;17.75;;;5.70;99.90;;;;;;5074305;28;20028;-84
2021/12/06 11:24:17;;;;;;;51.75;19.42;;;5.60;99.90;;;;;;5073320;28;20056;-82
2021/12/06 11:26:48;;;;;;;48.95;17.20;;;5.50;99.90;;;;;;5054712;28;20020;-84
2021/12/06 11:29:22;;;;;;;39.45;14.52;;;5.50;99.90;;;;;;5053567;28;20081;-83
2021/12/06 11:31:58;;;;;;;34.50;15.40;;;5.60;99.90;;;;;;5056550;28;20025;-82
2021/12/06 11:34:52;;;;;;;35.42;15.60;;;5.60;99.90;;;;;;5074827;28;20522;-80
2021/12/06 11:37:36;;;;;;;30.92;13.50;;;5.70;99.90;;;;;;5043596;28;20036;-78
2021/12/06 11:40:06;;;;;;;37.13;15.35;;;5.70;99.90;;;;;;5056008;28;20032;-79
2021/12/06 11:42:46;;;;;;;37.92;16.13;;;5.70;99.90;;;;;;5073934;28;20024;-78
2021/12/06 11:45:12;;;;;;;37.47;14.32;;;5.80;99.90;;;;;;5050509;28;20037;-78
2021/12/06 11:47:38;;;;;;;37.10;15.25;;;5.90;99.90;;;;;;5056430;28;20534;-78
2021/12/06 11:50:04;;;;;;;37.05;15.02;;;5.80;99.90;;;;;;5075034;28;20025;-78
2021/12/06 11:52:32;;;;;;;46.20;15.75;;;5.90;99.90;;;;;;5054306;28;20029;-78
2021/12/06 11:55:16;;;;;;;40.08;14.95;;;6.00;99.90;;;;;;5057701;28;20112;-78
2021/12/06 11:57:44;;;;;;;33.65;13.77;;;6.20;99.90;;;;;;5056307;28;20040;-79
2021/12/06 12:00:13;;;;;;;36.97;15.10;;;6.10;99.90;;;;;;5057702;28;20036;-78
2021/12/06 12:02:49;;;;;;;36.60;16.48;;;6.10;99.90;;;;;;5073705;28;20046;-78
2021/12/06 12:05:34;;;;;;;38.60;16.65;;;6.10;99.90;;;;;;5070422;28;20107;-79
2021/12/06 12:08:13;;;;;;;34.55;14.63;;;6.10;99.90;;;;;;5043778;28;20035;-79
2021/12/06 12:10:51;;;;;;;39.70;16.70;;;6.10;99.90;;;;;;5046477;28;20028;-79
2021/12/06 12:13:34;;;;;;;41.17;15.90;;;6.00;99.90;;;;;;5076625;28;20032;-79
2021/12/06 12:16:07;;;;;;;37.22;15.32;;;6.10;99.90;;;;;;5059602;28;20024;-79
2021/12/06 12:18:37;;;;;;;38.63;16.33;;;6.10;99.90;;;;;;5061213;28;20024;-79
2021/12/06 12:21:03;;;;;;;45.53;17.75;;;6.20;99.90;;;;;;5057967;28;20025;-79
2021/12/06 12:23:33;;;;;;;39.70;17.02;;;6.20;99.90;;;;;;5076826;28;20016;-79
2021/12/06 12:26:05;;;;;;;35.17;14.60;;;6.20;99.90;;;;;;5076410;28;20020;-78
2021/12/06 12:28:39;;;;;;;32.45;13.13;;;6.20;99.90;;;;;;5070355;28;20075;-79
2021/12/06 12:31:07;;;;;;;30.17;12.02;;;6.10;99.90;;;;;;5056765;28;20036;-80
2021/12/06 12:33:33;;;;;;;31.15;12.95;;;6.00;99.90;;;;;;5057584;28;20024;-79
2021/12/06 12:36:06;;;;;;;31.52;13.02;;;6.00;99.90;;;;;;5055529;28;20093;-77
2021/12/06 12:38:34;;;;;;;31.73;13.20;;;5.90;99.90;;;;;;5073743;28;20028;-78
2021/12/06 12:41:06;;;;;;;33.97;14.00;;;5.80;99.90;;;;;;5056242;28;20025;-78
2021/12/06 12:43:46;;;;;;;34.75;13.85;;;5.90;99.90;;;;;;5074246;28;20029;-78
2021/12/06 12:46:16;;;;;;;36.40;13.80;;;5.80;99.90;;;;;;5053939;28;20098;-79
2021/12/06 12:48:54;;;;;;;33.13;13.52;;;5.80;99.90;;;;;;5072476;28;20021;-79
2021/12/06 12:51:32;;;;;;;42.20;15.75;;;5.80;99.90;;;;;;5072068;28;20024;-80
2021/12/06 12:54:02;;;;;;;;;;;5.80;99.90;;;;;;5071659;28;20036;-80
2021/12/06 12:56:58;;;;;;;22.33;11.85;;;5.80;99.90;;;;;;5054152;28;19912;-80